Time;durP1;ratioP1;P1;durP2;ratioP2;P2;SDS_P1;SDS_P2;PMS_P1;PMS_P2;Temp;Humidity;BMP_temperature;BMP_pressure;BME280_temperature;BME280_humidity;BME280_pressure;Samples;Min_cycle;Max_cycle;Signal;HPM_P1;HPM_P2
2023/03/29 00:01:24;;;;;;;5.32;2.05;;;4.60;99.90;;;;;;5019635;28;20401;-67
2023/03/29 00:03:50;;;;;;;3.08;2.20;;;4.60;99.90;;;;;;5027291;28;20041;-64
2023/03/29 00:06:20;;;;;;;4.05;1.88;;;4.60;99.90;;;;;;5021973;28;20037;-64
2023/03/29 00:08:52;;;;;;;3.03;1.70;;;4.70;99.90;;;;;;5037720;28;20053;-66
2023/03/29 00:11:19;;;;;;;5.78;1.92;;;4.70;99.90;;;;;;5027786;28;22045;-66
2023/03/29 00:13:44;;;;;;;2.33;1.60;;;4.70;99.90;;;;;;5022559;28;20561;-67
2023/03/29 00:16:11;;;;;;;4.82;2.20;;;4.70;99.90;;;;;;5025514;28;20041;-66
2023/03/29 00:18:37;;;;;;;3.65;1.88;;;4.60;99.90;;;;;;5020246;28;20049;-67
2023/03/29 00:21:03;;;;;;;3.08;2.08;;;4.60;99.90;;;;;;5024424;28;20041;-66
2023/03/29 00:23:29;;;;;;;5.15;2.22;;;4.70;99.90;;;;;;5019096;28;20056;-67
2023/03/29 00:25:55;;;;;;;3.17;2.28;;;4.60;99.90;;;;;;5043558;28;20052;-65
2023/03/29 00:28:21;;;;;;;2.72;1.92;;;4.70;99.90;;;;;;5032053;28;20037;-65
2023/03/29 00:30:49;;;;;;;4.70;2.08;;;4.60;99.90;;;;;;5023458;28;20064;-67
2023/03/29 00:33:17;;;;;;;3.70;1.63;;;4.60;99.90;;;;;;5031918;28;20087;-65
2023/03/29 00:35:43;;;;;;;2.83;1.98;;;4.70;99.90;;;;;;5046336;28;20056;-67
2023/03/29 00:38:09;;;;;;;3.05;1.88;;;4.60;99.90;;;;;;5028993;28;20037;-64
2023/03/29 00:40:41;;;;;;;3.78;2.25;;;4.70;99.90;;;;;;5028240;28;20124;-66
2023/03/29 00:43:11;;;;;;;5.28;2.58;;;4.70;99.90;;;;;;5026967;28;20048;-65
2023/03/29 00:45:37;;;;;;;2.87;2.10;;;4.70;99.90;;;;;;5031320;28;20480;-65
2023/03/29 00:48:07;;;;;;;4.57;2.60;;;4.70;99.90;;;;;;5032728;28;20316;-65
2023/03/29 00:50:41;;;;;;;3.90;1.95;;;4.70;99.90;;;;;;5046294;28;20115;-65
2023/03/29 00:53:12;;;;;;;4.32;2.42;;;4.70;99.90;;;;;;5048202;28;20061;-65
2023/03/29 00:55:52;;;;;;;4.30;2.08;;;4.80;99.90;;;;;;5033921;28;20049;-65
2023/03/29 00:58:25;;;;;;;3.08;2.00;;;4.80;99.90;;;;;;5034073;28;22680;-66
2023/03/29 01:01:02;;;;;;;4.10;2.70;;;4.70;99.90;;;;;;5031538;28;20520;-66
2023/03/29 01:03:32;;;;;;;3.58;2.15;;;4.80;99.90;;;;;;5039662;28;20053;-67
2023/03/29 01:06:06;;;;;;;5.03;2.53;;;4.80;99.90;;;;;;5025403;28;20512;-69
2023/03/29 01:08:47;;;;;;;7.22;2.45;;;4.80;99.90;;;;;;5040670;28;20041;-66
2023/03/29 01:11:42;;;;;;;3.28;1.90;;;4.80;99.90;;;;;;5026702;28;20378;-66
2023/03/29 01:14:38;;;;;;;3.88;2.33;;;4.80;99.90;;;;;;5021533;28;20045;-68
2023/03/29 01:17:05;;;;;;;3.25;2.20;;;4.80;99.90;;;;;;5040568;28;20033;-67
2023/03/29 01:19:48;;;;;;;3.63;2.22;;;4.70;99.90;;;;;;5041577;28;20041;-67
2023/03/29 01:22:37;;;;;;;3.40;2.33;;;4.70;99.90;;;;;;5024485;28;20064;-67
2023/03/29 01:25:25;;;;;;;5.53;2.30;;;4.70;99.90;;;;;;5027349;28;20045;-67
2023/03/29 01:28:01;;;;;;;5.63;2.38;;;4.80;99.90;;;;;;5025477;28;20041;-64
2023/03/29 01:30:36;;;;;;;5.75;2.83;;;4.70;99.90;;;;;;5034649;28;20038;-64
2023/03/29 01:33:19;;;;;;;5.43;2.17;;;4.70;99.90;;;;;;5023953;28;20037;-67
2023/03/29 01:35:56;;;;;;;5.53;2.50;;;4.70;99.90;;;;;;5038046;28;20075;-65
2023/03/29 01:38:41;;;;;;;4.68;2.75;;;4.70;99.90;;;;;;5024833;28;20044;-67
2023/03/29 01:41:07;;;;;;;7.70;2.63;;;4.70;99.90;;;;;;5048277;28;20441;-65
2023/03/29 01:43:43;;;;;;;4.63;2.13;;;4.70;99.90;;;;;;5034013;28;20065;-67
2023/03/29 01:46:22;;;;;;;3.72;2.90;;;4.80;99.90;;;;;;5037240;28;20060;-66
2023/03/29 01:48:57;;;;;;;5.72;2.80;;;4.80;99.90;;;;;;5022875;28;20052;-66
2023/03/29 01:51:40;;;;;;;3.50;2.63;;;4.80;99.90;;;;;;5035693;28;20063;-65
2023/03/29 01:54:15;;;;;;;5.47;2.45;;;4.80;99.90;;;;;;5040765;28;20037;-66
2023/03/29 01:56:43;;;;;;;5.18;2.58;;;4.80;99.90;;;;;;5030849;28;20041;-65
2023/03/29 01:59:19;;;;;;;5.15;3.00;;;4.90;99.90;;;;;;5035470;28;20383;-65
2023/03/29 02:01:52;;;;;;;5.20;2.40;;;4.90;99.90;;;;;;5046991;28;20040;-68
2023/03/29 02:04:24;;;;;;;3.72;2.83;;;4.90;99.90;;;;;;5036899;28;20492;-64
2023/03/29 02:06:53;;;;;;;4.65;2.67;;;4.90;99.90;;;;;;5037113;28;20389;-65
2023/03/29 02:09:19;;;;;;;4.90;2.97;;;4.90;99.90;;;;;;5030707;28;20057;-65
2023/03/29 02:11:46;;;;;;;6.78;3.10;;;4.90;99.90;;;;;;5025463;28;20045;-65
2023/03/29 02:14:12;;;;;;;4.05;2.33;;;4.90;99.90;;;;;;5007903;28;20037;-68
2023/03/29 02:16:39;;;;;;;5.55;2.92;;;5.00;99.90;;;;;;5040690;28;20041;-65
2023/03/29 02:19:06;;;;;;;6.28;3.40;;;5.00;99.90;;;;;;5022747;28;20048;-67
2023/03/29 02:21:50;;;;;;;6.60;2.78;;;5.00;99.90;;;;;;5008746;28;20583;-65
2023/03/29 02:24:17;;;;;;;8.63;4.03;;;5.10;99.90;;;;;;5033225;28;20075;-67
2023/03/29 02:26:43;;;;;;;5.20;3.13;;;5.10;99.90;;;;;;5027248;28;20063;-65
2023/03/29 02:29:09;;;;;;;5.35;3.30;;;5.10;99.90;;;;;;5015872;28;20041;-65
2023/03/29 02:31:52;;;;;;;7.18;3.70;;;5.10;99.90;;;;;;5024456;28;20123;-65
2023/03/29 02:34:27;;;;;;;8.63;3.25;;;5.10;99.90;;;;;;5025056;28;20041;-67
2023/03/29 02:36:59;;;;;;;6.07;3.70;;;5.10;99.90;;;;;;5039856;28;20090;-65
2023/03/29 02:39:28;;;;;;;4.47;3.03;;;5.10;99.90;;;;;;5021394;28;20048;-67
2023/03/29 02:41:54;;;;;;;5.97;3.67;;;5.10;99.90;;;;;;5027647;28;20531;-65
2023/03/29 02:44:24;;;;;;;8.18;3.88;;;5.10;99.90;;;;;;5022460;28;20072;-66
2023/03/29 02:46:55;;;;;;;8.25;4.03;;;5.10;99.90;;;;;;5025676;28;20080;-67
2023/03/29 02:49:21;;;;;;;9.40;4.00;;;5.10;99.90;;;;;;5025152;28;20420;-65
2023/03/29 02:51:50;;;;;;;10.90;3.72;;;5.10;99.90;;;;;;5033457;28;20044;-66
2023/03/29 02:54:22;;;;;;;8.35;3.67;;;5.10;99.90;;;;;;5023412;28;20037;-66
2023/03/29 02:56:54;;;;;;;8.30;4.15;;;5.20;99.90;;;;;;5021575;28;20040;-65
2023/03/29 02:59:21;;;;;;;11.18;4.22;;;5.20;99.90;;;;;;5036188;28;20126;-67
2023/03/29 03:01:48;;;;;;;11.40;4.82;;;5.20;99.90;;;;;;5024169;28;20072;-65
2023/03/29 03:04:14;;;;;;;7.72;4.60;;;5.20;99.90;;;;;;5024660;28;20111;-66
2023/03/29 03:06:40;;;;;;;7.93;4.57;;;5.20;99.90;;;;;;5032369;28;20052;-65
2023/03/29 03:09:06;;;;;;;10.73;5.05;;;5.20;99.90;;;;;;5025750;28;20029;-68
2023/03/29 03:11:33;;;;;;;11.80;5.60;;;5.20;99.90;;;;;;5029414;28;20029;-68
2023/03/29 03:13:58;;;;;;;10.95;5.40;;;5.20;99.90;;;;;;5023780;28;20041;-68
2023/03/29 03:16:24;;;;;;;9.70;5.35;;;5.20;99.90;;;;;;5022597;28;20041;-66
2023/03/29 03:18:51;;;;;;;14.23;5.72;;;5.20;99.90;;;;;;5022766;28;20077;-68
2023/03/29 03:21:20;;;;;;;8.57;4.85;;;5.20;99.90;;;;;;5023977;28;20494;-65
2023/03/29 03:23:47;;;;;;;13.05;5.55;;;5.30;99.90;;;;;;5028334;28;20053;-67
2023/03/29 03:26:14;;;;;;;12.07;5.47;;;5.20;99.90;;;;;;5008470;28;20037;-66
2023/03/29 03:28:39;;;;;;;9.77;5.57;;;5.30;99.90;;;;;;5019278;28;20042;-67
2023/03/29 03:31:05;;;;;;;12.45;6.63;;;5.30;99.90;;;;;;5022197;28;22719;-68
2023/03/29 03:33:31;;;;;;;11.88;5.97;;;5.30;99.90;;;;;;5039514;28;20045;-66
2023/03/29 03:36:03;;;;;;;10.82;5.75;;;5.30;99.90;;;;;;5029481;28;20481;-67
2023/03/29 03:38:29;;;;;;;11.70;5.72;;;5.30;99.90;;;;;;5015901;28;20405;-65
2023/03/29 03:40:56;;;;;;;12.55;5.90;;;5.30;99.90;;;;;;5034088;28;20047;-68
2023/03/29 03:43:22;;;;;;;13.10;6.00;;;5.30;99.90;;;;;;5043185;28;20422;-66
2023/03/29 03:45:48;;;;;;;12.68;6.15;;;5.30;99.90;;;;;;5031307;28;20079;-66
2023/03/29 03:48:14;;;;;;;14.27;6.28;;;5.30;99.90;;;;;;5031077;28;20494;-66
2023/03/29 03:50:39;;;;;;;12.68;6.20;;;5.30;99.90;;;;;;5034303;28;20099;-65
2023/03/29 03:53:05;;;;;;;12.27;6.07;;;5.30;99.90;;;;;;5032764;28;20129;-66
2023/03/29 03:55:32;;;;;;;16.10;7.15;;;5.30;99.90;;;;;;5049044;28;20492;-66
2023/03/29 03:57:58;;;;;;;15.13;5.68;;;5.30;99.90;;;;;;5033800;28;20041;-66
2023/03/29 04:00:25;;;;;;;14.63;6.22;;;5.30;99.90;;;;;;5026022;28;20053;-65
2023/03/29 04:02:53;;;;;;;13.18;6.82;;;5.30;99.90;;;;;;5032153;28;20045;-68
2023/03/29 04:05:19;;;;;;;16.17;6.45;;;5.40;99.90;;;;;;5037951;28;20049;-66
2023/03/29 04:07:45;;;;;;;12.63;5.88;;;5.40;99.90;;;;;;5029083;28;20030;-66
2023/03/29 04:10:10;;;;;;;15.57;6.93;;;5.40;99.90;;;;;;5027239;28;20030;-66
2023/03/29 04:12:36;;;;;;;14.30;6.55;;;5.40;99.90;;;;;;5037003;28;20445;-68
2023/03/29 04:15:03;;;;;;;12.57;6.43;;;5.40;99.90;;;;;;5034184;28;20041;-66
2023/03/29 04:17:28;;;;;;;13.00;6.43;;;5.40;99.90;;;;;;5021026;28;20041;-66
2023/03/29 04:19:54;;;;;;;10.68;6.03;;;5.40;99.90;;;;;;5006406;28;20057;-68
2023/03/29 04:22:20;;;;;;;11.65;6.45;;;5.40;99.90;;;;;;5032135;28;20033;-67
2023/03/29 04:24:45;;;;;;;12.48;6.18;;;5.40;99.90;;;;;;5027996;28;20045;-65
2023/03/29 04:27:11;;;;;;;13.43;6.57;;;5.50;99.90;;;;;;5027237;28;20041;-68
2023/03/29 04:29:36;;;;;;;16.73;6.63;;;5.50;99.90;;;;;;5022612;28;20033;-67
2023/03/29 04:32:02;;;;;;;14.23;6.55;;;5.50;99.90;;;;;;5050033;28;20029;-69
2023/03/29 04:34:28;;;;;;;11.82;6.00;;;5.50;99.90;;;;;;5044757;28;20758;-66
2023/03/29 04:36:53;;;;;;;9.55;6.07;;;5.60;99.90;;;;;;5036868;28;20090;-67
2023/03/29 04:39:19;;;;;;;12.50;5.25;;;5.60;99.90;;;;;;5023191;28;20045;-68
2023/03/29 04:41:46;;;;;;;17.50;6.35;;;5.60;99.90;;;;;;5031107;28;22666;-67
2023/03/29 04:44:13;;;;;;;11.32;5.93;;;5.60;99.90;;;;;;5023494;28;20400;-66
2023/03/29 04:46:39;;;;;;;11.43;5.55;;;5.60;99.90;;;;;;5042878;28;20109;-67
2023/03/29 04:49:05;;;;;;;11.27;5.70;;;5.60;99.90;;;;;;5040479;28;20810;-69
2023/03/29 04:51:31;;;;;;;13.20;6.38;;;5.60;99.90;;;;;;5039308;28;20065;-66
2023/03/29 04:53:56;;;;;;;14.32;6.53;;;5.60;99.90;;;;;;5036652;28;20128;-68
2023/03/29 04:56:22;;;;;;;11.85;5.78;;;5.60;99.90;;;;;;5024630;28;20051;-68
2023/03/29 04:58:48;;;;;;;11.73;7.00;;;5.60;99.90;;;;;;5019841;28;20771;-68
2023/03/29 05:01:14;;;;;;;12.63;6.30;;;5.50;99.90;;;;;;5009566;28;20081;-67
2023/03/29 05:03:40;;;;;;;10.65;6.05;;;5.50;99.90;;;;;;5023577;28;20037;-65
2023/03/29 05:06:08;;;;;;;12.13;6.57;;;5.50;99.90;;;;;;5039862;28;20145;-68
2023/03/29 05:08:38;;;;;;;12.45;6.40;;;5.50;99.90;;;;;;5026202;28;20041;-69
2023/03/29 05:11:09;;;;;;;12.35;6.80;;;5.50;99.90;;;;;;5035585;28;20143;-67
2023/03/29 05:13:36;;;;;;;12.25;6.70;;;5.50;99.90;;;;;;5029312;28;20049;-68
2023/03/29 05:16:02;;;;;;;11.82;6.20;;;5.50;99.90;;;;;;5033127;28;20045;-65
2023/03/29 05:18:28;;;;;;;12.95;6.30;;;5.50;99.90;;;;;;5041382;28;20748;-67
2023/03/29 05:20:55;;;;;;;13.30;5.97;;;5.50;99.90;;;;;;5023140;28;20045;-67
2023/03/29 05:23:20;;;;;;;11.63;5.80;;;5.60;99.90;;;;;;5039721;28;20029;-68
2023/03/29 05:25:47;;;;;;;11.80;6.18;;;5.50;99.90;;;;;;5025699;28;20377;-67
2023/03/29 05:28:13;;;;;;;11.15;6.30;;;5.60;99.90;;;;;;5021609;28;20052;-67
2023/03/29 05:30:39;;;;;;;12.32;5.95;;;5.60;99.90;;;;;;5021134;28;20037;-70
2023/03/29 05:33:05;;;;;;;16.13;7.03;;;5.60;99.90;;;;;;5023512;28;20044;-69
2023/03/29 05:35:31;;;;;;;10.50;5.70;;;5.60;99.90;;;;;;5040289;28;20374;-66
2023/03/29 05:37:57;;;;;;;14.30;6.97;;;5.60;99.90;;;;;;5026613;28;20036;-68
2023/03/29 05:40:26;;;;;;;13.13;6.70;;;5.60;99.90;;;;;;5035734;28;20103;-68
2023/03/29 05:42:52;;;;;;;12.68;6.88;;;5.60;99.90;;;;;;5035279;28;20511;-66
2023/03/29 05:45:19;;;;;;;13.40;6.57;;;5.60;99.90;;;;;;5016822;28;20069;-68
2023/03/29 05:47:45;;;;;;;13.52;6.78;;;5.60;99.90;;;;;;5036901;28;20041;-67
2023/03/29 05:50:10;;;;;;;12.02;6.70;;;5.60;99.90;;;;;;5026536;28;20069;-65
2023/03/29 05:52:37;;;;;;;13.23;6.50;;;5.50;99.90;;;;;;5033587;28;20057;-68
2023/03/29 05:55:04;;;;;;;12.80;6.82;;;5.40;99.90;;;;;;5034631;28;20033;-66
2023/03/29 05:57:30;;;;;;;15.55;7.45;;;5.40;99.90;;;;;;5033403;28;20037;-66
2023/03/29 05:59:55;;;;;;;12.77;5.85;;;5.30;99.90;;;;;;5027288;28;20047;-67
2023/03/29 06:02:22;;;;;;;14.98;6.78;;;5.30;99.90;;;;;;5035989;28;20459;-66
2023/03/29 06:04:47;;;;;;;10.98;6.40;;;5.30;99.90;;;;;;5045560;28;20052;-66
2023/03/29 06:07:13;;;;;;;14.35;7.00;;;5.20;99.90;;;;;;5050687;28;20036;-65
2023/03/29 06:09:39;;;;;;;16.27;6.88;;;5.20;99.90;;;;;;5031808;28;20041;-67
2023/03/29 06:12:06;;;;;;;13.70;6.57;;;5.20;99.90;;;;;;5029040;28;20033;-66
2023/03/29 06:14:32;;;;;;;13.55;6.65;;;5.20;99.90;;;;;;5030436;28;20135;-66
2023/03/29 06:16:59;;;;;;;13.65;7.22;;;5.30;99.90;;;;;;5019904;28;20684;-65
2023/03/29 06:19:24;;;;;;;14.10;7.32;;;5.30;99.90;;;;;;5044565;28;20052;-69
2023/03/29 06:21:52;;;;;;;11.82;7.32;;;5.20;99.90;;;;;;5043343;28;20527;-68
2023/03/29 06:24:19;;;;;;;14.93;6.82;;;5.30;99.90;;;;;;5037405;28;20049;-66
2023/03/29 06:26:45;;;;;;;13.05;7.38;;;5.30;99.90;;;;;;5029601;28;20040;-66
2023/03/29 06:29:10;;;;;;;15.63;6.97;;;5.30;99.90;;;;;;5042063;28;20119;-68
2023/03/29 06:31:36;;;;;;;11.90;8.00;;;5.30;99.90;;;;;;5032911;28;20044;-66
2023/03/29 06:34:03;;;;;;;19.42;7.90;;;5.30;99.90;;;;;;5033970;28;20124;-66
2023/03/29 06:36:29;;;;;;;14.27;7.00;;;5.30;99.90;;;;;;5033273;28;20049;-68
2023/03/29 06:38:55;;;;;;;13.57;7.45;;;5.30;99.90;;;;;;5060722;28;20040;-65
2023/03/29 06:41:20;;;;;;;16.60;7.63;;;5.30;99.90;;;;;;5032325;28;22277;-67
2023/03/29 06:43:46;;;;;;;17.33;6.55;;;5.40;99.90;;;;;;5032794;28;20049;-65
2023/03/29 06:46:12;;;;;;;14.88;7.28;;;5.40;99.90;;;;;;5031734;28;20091;-65
2023/03/29 06:48:38;;;;;;;14.80;7.03;;;5.40;99.90;;;;;;5037023;28;20430;-65
2023/03/29 06:51:06;;;;;;;17.55;7.65;;;5.40;99.90;;;;;;5033204;28;20037;-64
2023/03/29 06:53:32;;;;;;;11.85;6.95;;;5.40;99.90;;;;;;5029589;28;20033;-66
2023/03/29 06:55:58;;;;;;;13.68;7.15;;;5.50;99.90;;;;;;5038358;28;20562;-67
2023/03/29 06:58:24;;;;;;;15.13;7.30;;;5.50;99.90;;;;;;5042048;28;20072;-67
2023/03/29 07:00:50;;;;;;;13.75;7.18;;;5.50;99.90;;;;;;5033881;28;20654;-65
2023/03/29 07:03:22;;;;;;;16.45;7.00;;;5.60;99.90;;;;;;5045016;28;20052;-66
2023/03/29 07:05:49;;;;;;;12.35;6.25;;;5.60;99.90;;;;;;5026683;28;20441;-67
2023/03/29 07:08:15;;;;;;;13.38;6.95;;;5.70;99.90;;;;;;5046696;28;20037;-65
2023/03/29 07:10:46;;;;;;;14.68;6.70;;;5.70;99.90;;;;;;5042733;28;20463;-66
2023/03/29 07:13:13;;;;;;;14.52;6.68;;;5.70;99.90;;;;;;5037322;28;20029;-65
2023/03/29 07:15:42;;;;;;;14.15;7.35;;;5.70;99.90;;;;;;5043201;28;20045;-65
2023/03/29 07:18:09;;;;;;;13.50;6.82;;;5.80;99.90;;;;;;5050023;28;20116;-65
2023/03/29 07:20:37;;;;;;;11.65;6.53;;;5.80;99.90;;;;;;5031962;28;20072;-66
2023/03/29 07:23:03;;;;;;;14.77;6.82;;;5.80;99.90;;;;;;5030204;28;20068;-66
2023/03/29 07:25:29;;;;;;;12.73;6.72;;;5.90;99.90;;;;;;5051848;28;20358;-65
2023/03/29 07:27:55;;;;;;;12.40;6.25;;;5.90;99.90;;;;;;5025300;28;20033;-65
2023/03/29 07:30:28;;;;;;;9.73;5.45;;;5.90;99.90;;;;;;5023475;28;20060;-65
2023/03/29 07:32:56;;;;;;;14.35;6.40;;;5.90;99.90;;;;;;5032920;28;20094;-66
2023/03/29 07:35:22;;;;;;;13.15;6.30;;;5.90;99.90;;;;;;5025390;28;20578;-66
2023/03/29 07:37:48;;;;;;;11.60;6.05;;;5.90;99.90;;;;;;5040078;28;20041;-68
2023/03/29 07:40:17;;;;;;;13.32;6.38;;;6.00;99.90;;;;;;5035538;28;20045;-66
2023/03/29 07:42:44;;;;;;;14.85;6.00;;;6.00;99.90;;;;;;5035925;28;20041;-65
2023/03/29 07:45:12;;;;;;;11.75;5.78;;;6.10;99.90;;;;;;5024875;28;20037;-67
2023/03/29 07:47:39;;;;;;;14.07;6.70;;;6.10;99.90;;;;;;5040246;28;20049;-66
2023/03/29 07:50:06;;;;;;;12.10;6.28;;;6.20;99.90;;;;;;5025510;28;20025;-68
2023/03/29 07:52:32;;;;;;;11.02;5.60;;;6.20;99.90;;;;;;5049706;28;20073;-66
2023/03/29 07:54:57;;;;;;;12.77;6.10;;;6.30;99.90;;;;;;5034008;28;20041;-65
2023/03/29 07:57:25;;;;;;;19.25;6.22;;;6.30;99.90;;;;;;5031252;28;20096;-66
2023/03/29 07:59:51;;;;;;;10.85;5.65;;;6.30;99.90;;;;;;5047791;28;20444;-64
2023/03/29 08:02:18;;;;;;;12.98;6.20;;;6.40;99.90;;;;;;5059974;28;20176;-66
2023/03/29 08:04:44;;;;;;;15.45;6.65;;;6.40;99.90;;;;;;5065870;28;20127;-66
2023/03/29 08:07:09;;;;;;;10.00;5.20;;;6.40;99.90;;;;;;5055550;28;20124;-68
2023/03/29 08:09:36;;;;;;;11.38;6.53;;;6.50;99.90;;;;;;5048371;28;20037;-66
2023/03/29 08:12:01;;;;;;;12.85;5.82;;;6.50;99.90;;;;;;5049204;28;20044;-69
2023/03/29 08:14:27;;;;;;;14.75;5.97;;;6.50;99.90;;;;;;5046769;28;20040;-66
2023/03/29 08:16:53;;;;;;;14.23;5.85;;;6.60;99.90;;;;;;5051561;28;20048;-67
2023/03/29 08:19:19;;;;;;;8.65;5.03;;;6.60;99.90;;;;;;5047271;28;20041;-66
2023/03/29 08:21:45;;;;;;;10.90;5.38;;;6.70;99.90;;;;;;5049236;28;20032;-66
2023/03/29 08:24:10;;;;;;;8.15;4.90;;;6.70;99.90;;;;;;5061909;28;20124;-68
2023/03/29 08:26:36;;;;;;;10.50;4.47;;;6.70;99.90;;;;;;5044059;28;20218;-67
2023/03/29 08:29:01;;;;;;;11.07;5.18;;;6.80;99.90;;;;;;5045203;28;20052;-67
2023/03/29 08:31:27;;;;;;;9.80;5.32;;;6.80;99.90;;;;;;5039053;28;20587;-65
2023/03/29 08:33:52;;;;;;;11.80;5.00;;;6.80;99.90;;;;;;5042745;28;20045;-67
2023/03/29 08:36:18;;;;;;;9.35;5.15;;;6.80;99.90;;;;;;5049657;28;20041;-69
2023/03/29 08:38:45;;;;;;;10.10;4.78;;;6.90;99.90;;;;;;5039767;28;20059;-68
2023/03/29 08:41:32;;;;;;;11.20;4.95;;;6.90;99.90;;;;;;5051246;28;20037;-66
2023/03/29 08:44:15;;;;;;;11.30;4.93;;;7.00;99.90;;;;;;5034185;28;20091;-65
2023/03/29 08:47:04;;;;;;;10.25;5.20;;;7.10;99.90;;;;;;5039143;28;20041;-67
2023/03/29 08:49:30;;;;;;;13.15;5.57;;;7.20;99.90;;;;;;5035846;28;20061;-67
2023/03/29 08:51:59;;;;;;;12.35;4.75;;;7.30;99.90;;;;;;5042483;28;20045;-66
2023/03/29 08:54:31;;;;;;;7.80;4.90;;;7.50;99.90;;;;;;5035394;28;20052;-64
2023/03/29 08:57:15;;;;;;;9.63;5.07;;;7.70;99.90;;;;;;5036038;28;20055;-66
2023/03/29 08:59:44;;;;;;;9.75;4.85;;;8.00;99.90;;;;;;5032210;28;20746;-66
2023/03/29 09:02:16;;;;;;;9.02;5.28;;;8.20;99.90;;;;;;5049269;28;20060;-66
2023/03/29 09:04:42;;;;;;;8.93;5.18;;;8.60;99.90;;;;;;5049636;28;20045;-68
2023/03/29 09:07:09;;;;;;;9.30;4.95;;;8.80;99.90;;;;;;5048740;28;20033;-66
2023/03/29 09:09:35;;;;;;;11.80;5.20;;;9.00;99.90;;;;;;5054970;28;20033;-68
2023/03/29 09:12:09;;;;;;;7.95;4.40;;;8.90;99.90;;;;;;5050115;28;20045;-67
2023/03/29 09:14:50;;;;;;;10.77;4.85;;;8.90;99.90;;;;;;5034979;28;20086;-67
2023/03/29 09:17:30;;;;;;;8.05;4.38;;;9.20;99.90;;;;;;5043820;28;20037;-68
2023/03/29 09:20:20;;;;;;;6.45;4.40;;;9.20;99.90;;;;;;5031533;28;20111;-67
2023/03/29 09:23:07;;;;;;;7.77;4.33;;;9.10;99.90;;;;;;5060130;28;20037;-68
2023/03/29 09:25:48;;;;;;;10.02;4.53;;;9.10;99.90;;;;;;5034169;28;20132;-66
2023/03/29 09:28:39;;;;;;;8.13;4.70;;;9.10;99.90;;;;;;5038608;28;20049;-67
2023/03/29 09:31:13;;;;;;;6.88;4.15;;;9.20;99.90;;;;;;5046755;28;20033;-65
2023/03/29 09:33:53;;;;;;;9.20;4.75;;;9.40;99.90;;;;;;5041488;28;20033;-68
2023/03/29 09:36:46;;;;;;;7.25;4.47;;;9.80;99.90;;;;;;5039771;28;20111;-66
2023/03/29 09:39:13;;;;;;;11.30;4.78;;;9.90;99.90;;;;;;5039032;28;20091;-67
2023/03/29 09:41:58;;;;;;;8.05;4.70;;;10.40;99.90;;;;;;5049888;28;20049;-67
2023/03/29 09:44:32;;;;;;;7.85;4.55;;;10.60;99.90;;;;;;5039968;28;20052;-68
2023/03/29 09:47:10;;;;;;;6.20;3.88;;;10.80;99.90;;;;;;5024614;28;20072;-68
2023/03/29 09:49:40;;;;;;;8.93;4.60;;;10.70;99.90;;;;;;5053163;28;20032;-67
2023/03/29 09:52:11;;;;;;;8.63;4.30;;;10.60;99.90;;;;;;5051703;28;20043;-67
2023/03/29 09:54:36;;;;;;;8.40;4.85;;;10.50;99.90;;;;;;5059685;28;20033;-67
2023/03/29 09:57:02;;;;;;;14.13;4.95;;;10.30;99.90;;;;;;5047449;28;20037;-69
2023/03/29 09:59:28;;;;;;;9.20;4.68;;;10.40;99.90;;;;;;5045707;28;20099;-67
2023/03/29 10:02:06;;;;;;;8.07;4.68;;;10.40;99.90;;;;;;5049523;28;20056;-68
2023/03/29 10:04:32;;;;;;;10.15;4.70;;;10.30;99.90;;;;;;5046078;28;20036;-66
2023/03/29 10:06:58;;;;;;;8.70;4.53;;;10.30;99.90;;;;;;5033687;28;20036;-67
2023/03/29 10:09:27;;;;;;;11.10;4.70;;;10.40;99.90;;;;;;5052092;28;20161;-67
2023/03/29 10:11:56;;;;;;;8.63;4.65;;;10.30;99.90;;;;;;5029212;28;20061;-67
2023/03/29 10:14:35;;;;;;;7.43;4.30;;;10.40;99.90;;;;;;5036497;28;20171;-67
2023/03/29 10:17:05;;;;;;;9.57;5.00;;;10.40;99.90;;;;;;5040692;28;20148;-67
2023/03/29 10:19:33;;;;;;;9.88;5.05;;;10.50;99.90;;;;;;5034913;28;20037;-66
2023/03/29 10:22:15;;;;;;;10.32;5.03;;;10.30;99.90;;;;;;5054461;28;20041;-69
2023/03/29 10:24:48;;;;;;;9.90;4.60;;;10.60;99.90;;;;;;5015174;28;20049;-67
2023/03/29 10:27:16;;;;;;;9.05;5.07;;;10.60;99.90;;;;;;5038368;28;20033;-66
2023/03/29 10:29:42;;;;;;;10.57;4.90;;;10.70;99.90;;;;;;5037811;28;20032;-68
2023/03/29 10:32:38;;;;;;;9.23;4.97;;;10.60;99.90;;;;;;5039577;28;20025;-67
2023/03/29 10:35:47;;;;;;;14.02;5.35;;;10.60;99.90;;;;;;5034018;28;20056;-67
2023/03/29 10:38:16;;;;;;;11.65;5.60;;;10.60;99.90;;;;;;5033554;28;20049;-66
2023/03/29 10:40:47;;;;;;;10.60;5.40;;;10.60;99.90;;;;;;5039504;28;20040;-67
2023/03/29 10:43:18;;;;;;;9.35;5.40;;;10.80;99.90;;;;;;5041087;28;20059;-67
2023/03/29 10:45:47;;;;;;;11.98;5.70;;;10.70;99.90;;;;;;5041583;28;20045;-65
2023/03/29 10:48:15;;;;;;;8.05;4.68;;;10.70;99.90;;;;;;5041902;28;20122;-68
2023/03/29 10:50:41;;;;;;;9.77;5.20;;;10.90;99.90;;;;;;5047866;28;20045;-67
2023/03/29 10:53:34;;;;;;;10.18;5.07;;;11.00;99.90;;;;;;5039899;28;20047;-68
2023/03/29 10:56:03;;;;;;;10.25;5.55;;;11.10;99.90;;;;;;5045921;28;20049;-67
2023/03/29 10:59:15;;;;;;;13.55;5.60;;;11.20;99.90;;;;;;5040049;28;20044;-67
2023/03/29 11:02:02;;;;;;;10.13;5.55;;;11.40;99.90;;;;;;5046341;28;20044;-67
2023/03/29 11:04:41;;;;;;;12.15;5.55;;;11.60;99.90;;;;;;5027140;28;20032;-68
2023/03/29 11:07:08;;;;;;;;;;;11.60;99.90;;;;;;5042024;28;20049;-69
2023/03/29 11:09:57;;;;;;;9.63;5.10;;;11.90;99.90;;;;;;5042671;28;20305;-67
2023/03/29 11:12:54;;;;;;;11.88;5.55;;;11.90;99.90;;;;;;5041131;28;20041;-65
2023/03/29 11:15:48;;;;;;;10.23;5.70;;;12.20;99.90;;;;;;5040641;28;20041;-69
2023/03/29 11:18:44;;;;;;;11.00;5.78;;;12.50;99.90;;;;;;5047879;28;20136;-68
2023/03/29 11:21:28;;;;;;;11.98;5.80;;;12.60;99.90;;;;;;5049462;28;20045;-69
2023/03/29 11:24:17;;;;;;;9.80;5.60;;;13.00;99.90;;;;;;5062540;28;20071;-67
2023/03/29 11:27:04;;;;;;;11.35;5.90;;;12.90;99.90;;;;;;5037143;28;20411;-73
2023/03/29 11:29:51;;;;;;;11.57;5.88;;;13.00;99.90;;;;;;5049960;28;20814;-67
2023/03/29 11:32:27;;;;;;;8.23;5.20;;;12.80;99.90;;;;;;5041431;28;20091;-68
2023/03/29 11:35:25;;;;;;;11.40;6.15;;;13.30;99.90;;;;;;5026600;28;21247;-69
2023/03/29 11:38:19;;;;;;;9.88;5.55;;;13.10;99.90;;;;;;5029557;28;20044;-70
2023/03/29 11:40:52;;;;;;;13.07;6.32;;;13.10;99.90;;;;;;5025893;28;20037;-69
2023/03/29 11:43:26;;;;;;;8.90;5.13;;;12.90;99.90;;;;;;5051444;28;20488;-71
2023/03/29 11:45:57;;;;;;;9.35;5.78;;;12.70;99.90;;;;;;5030847;28;20481;-67
2023/03/29 11:48:37;;;;;;;12.13;5.93;;;12.70;99.90;;;;;;5051237;28;20481;-66
2023/03/29 11:51:10;;;;;;;6.57;4.73;;;12.80;99.90;;;;;;5031617;28;20072;-68
2023/03/29 11:53:45;;;;;;;9.23;5.28;;;12.90;99.90;;;;;;5044542;28;20352;-70
2023/03/29 11:56:28;;;;;;;11.20;4.60;;;12.80;99.90;;;;;;5043515;28;20407;-67
2023/03/29 11:59:00;;;;;;;8.38;4.43;;;13.10;99.90;;;;;;5034363;28;20052;-71
2023/03/29 12:01:52;;;;;;;10.32;4.85;;;13.20;99.90;;;;;;5047595;28;20115;-67
2023/03/29 12:04:30;;;;;;;7.78;4.35;;;13.30;99.90;;;;;;5036040;28;20091;-74
2023/03/29 12:07:16;;;;;;;8.20;4.82;;;13.40;99.90;;;;;;5036158;28;20079;-72
2023/03/29 12:09:48;;;;;;;10.40;4.50;;;13.30;99.90;;;;;;5038421;28;20503;-66
2023/03/29 12:12:40;;;;;;;9.23;4.88;;;13.50;99.90;;;;;;5051127;28;20045;-66
2023/03/29 12:15:19;;;;;;;5.78;4.10;;;13.40;99.90;;;;;;5031195;28;20068;-67
2023/03/29 12:18:23;;;;;;;7.38;4.63;;;13.50;99.90;;;;;;5018958;28;20045;-67
2023/03/29 12:20:58;;;;;;;7.03;3.92;;;13.60;99.90;;;;;;5012880;28;20045;-65
2023/03/29 12:23:24;;;;;;;7.30;4.18;;;13.20;99.90;;;;;;5047038;28;20045;-66
2023/03/29 12:26:15;;;;;;;8.85;4.72;;;13.30;99.90;;;;;;5038438;28;20047;-67
2023/03/29 12:29:04;;;;;;;9.73;4.38;;;13.60;99.90;;;;;;5048256;28;20127;-67
2023/03/29 12:31:50;;;;;;;7.25;4.72;;;14.00;99.90;;;;;;5049685;28;20155;-68
2023/03/29 12:34:33;;;;;;;7.22;4.82;;;14.10;99.90;;;;;;5049939;28;20831;-67
2023/03/29 12:37:16;;;;;;;6.80;4.50;;;14.40;99.90;;;;;;5066146;28;20043;-67
2023/03/29 12:39:41;;;;;;;7.63;4.35;;;14.50;99.90;;;;;;5068668;28;20067;-68
2023/03/29 12:42:22;;;;;;;8.00;4.57;;;14.60;99.90;;;;;;5070816;28;20037;-69
2023/03/29 12:44:52;;;;;;;7.82;4.20;;;14.60;99.90;;;;;;5067034;28;20056;-67
2023/03/29 12:47:24;;;;;;;6.13;4.10;;;14.70;99.90;;;;;;5062927;28;20404;-67
2023/03/29 12:49:58;;;;;;;5.38;3.67;;;14.60;99.90;;;;;;5070047;28;20055;-67
2023/03/29 12:52:30;;;;;;;5.88;3.95;;;14.80;98.90;;;;;;5040282;28;20077;-65
2023/03/29 12:54:59;;;;;;;8.50;4.25;;;14.90;98.90;;;;;;5049506;28;20044;-70
2023/03/29 13:11:40;;;;;;;8.18;5.05;;;13.80;99.90;;;;;;5131674;27;20466;-66
2023/03/29 13:14:18;;;;;;;7.07;4.25;;;13.70;99.90;;;;;;5126811;27;20062;-70
2023/03/29 13:16:44;;;;;;;8.05;4.18;;;13.60;99.90;;;;;;5096574;28;20036;-69
2023/03/29 13:19:38;;;;;;;7.60;4.18;;;13.70;99.90;;;;;;5114043;27;20036;-67
2023/03/29 13:22:18;;;;;;;7.47;4.13;;;13.40;99.90;;;;;;5118831;28;20035;-69
2023/03/29 13:24:56;;;;;;;;;;;13.40;99.90;;;;;;5108483;28;20036;-66
2023/03/29 13:27:45;;;;;;;9.27;4.13;;;13.50;99.90;;;;;;5109131;28;19916;-66